sensor_id;sensor_type;location;lat;lon;timestamp;P1;durP1;ratioP1;P2;durP2;ratioP2
63534;SDS011;55128;50.230;18.944;2023-05-27T00:03:18;13.98;;;7.57;;
63534;SDS011;55128;50.230;18.944;2023-05-27T00:08:18;11.43;;;6.57;;
63534;SDS011;55128;50.230;18.944;2023-05-27T00:13:19;13.25;;;5.85;;
63534;SDS011;55128;50.230;18.944;2023-05-27T00:18:19;14.43;;;6.10;;
63534;SDS011;55128;50.230;18.944;2023-05-27T00:23:20;16.20;;;6.20;;
63534;SDS011;55128;50.230;18.944;2023-05-27T00:28:20;11.60;;;5.43;;
63534;SDS011;55128;50.230;18.944;2023-05-27T00:33:20;15.57;;;5.63;;
63534;SDS011;55128;50.230;18.944;2023-05-27T00:38:21;12.43;;;6.35;;
63534;SDS011;55128;50.230;18.944;2023-05-27T00:43:21;13.02;;;6.55;;
63534;SDS011;55128;50.230;18.944;2023-05-27T00:48:22;11.00;;;6.03;;
63534;SDS011;55128;50.230;18.944;2023-05-27T00:53:23;11.45;;;6.53;;
63534;SDS011;55128;50.230;18.944;2023-05-27T00:58:24;14.13;;;6.68;;
63534;SDS011;55128;50.230;18.944;2023-05-27T01:03:25;15.73;;;6.85;;
63534;SDS011;55128;50.230;18.944;2023-05-27T01:08:31;12.90;;;6.20;;
63534;SDS011;55128;50.230;18.944;2023-05-27T01:13:41;13.18;;;6.88;;
63534;SDS011;55128;50.230;18.944;2023-05-27T01:18:46;16.08;;;7.90;;
63534;SDS011;55128;50.230;18.944;2023-05-27T01:23:50;15.95;;;6.43;;
63534;SDS011;55128;50.230;18.944;2023-05-27T01:28:51;13.77;;;6.15;;
63534;SDS011;55128;50.230;18.944;2023-05-27T01:33:55;11.27;;;5.80;;
63534;SDS011;55128;50.230;18.944;2023-05-27T01:39:00;15.32;;;5.90;;
63534;SDS011;55128;50.230;18.944;2023-05-27T01:44:03;15.57;;;6.15;;
63534;SDS011;55128;50.230;18.944;2023-05-27T01:49:04;15.32;;;6.57;;
63534;SDS011;55128;50.230;18.944;2023-05-27T01:54:04;18.80;;;7.18;;
63534;SDS011;55128;50.230;18.944;2023-05-27T01:59:05;15.40;;;6.60;;
63534;SDS011;55128;50.230;18.944;2023-05-27T02:04:05;14.02;;;6.85;;
63534;SDS011;55128;50.230;18.944;2023-05-27T02:09:05;15.35;;;6.80;;
63534;SDS011;55128;50.230;18.944;2023-05-27T02:14:06;16.50;;;6.45;;
63534;SDS011;55128;50.230;18.944;2023-05-27T02:19:07;14.77;;;6.75;;
63534;SDS011;55128;50.230;18.944;2023-05-27T02:24:08;14.50;;;6.43;;
63534;SDS011;55128;50.230;18.944;2023-05-27T02:29:08;16.87;;;7.00;;
63534;SDS011;55128;50.230;18.944;2023-05-27T02:34:08;13.20;;;7.23;;
63534;SDS011;55128;50.230;18.944;2023-05-27T02:39:09;12.85;;;6.63;;
63534;SDS011;55128;50.230;18.944;2023-05-27T02:44:11;12.57;;;6.95;;
63534;SDS011;55128;50.230;18.944;2023-05-27T02:49:11;11.50;;;5.45;;
63534;SDS011;55128;50.230;18.944;2023-05-27T02:54:12;14.68;;;5.85;;
63534;SDS011;55128;50.230;18.944;2023-05-27T02:59:12;15.00;;;6.55;;
63534;SDS011;55128;50.230;18.944;2023-05-27T03:04:12;15.40;;;7.10;;
63534;SDS011;55128;50.230;18.944;2023-05-27T03:09:13;15.27;;;6.03;;
63534;SDS011;55128;50.230;18.944;2023-05-27T03:14:14;10.68;;;5.65;;
63534;SDS011;55128;50.230;18.944;2023-05-27T03:19:14;14.07;;;6.07;;
63534;SDS011;55128;50.230;18.944;2023-05-27T03:24:15;14.50;;;5.97;;
63534;SDS011;55128;50.230;18.944;2023-05-27T03:29:16;14.57;;;6.40;;
63534;SDS011;55128;50.230;18.944;2023-05-27T03:34:16;15.80;;;6.25;;
63534;SDS011;55128;50.230;18.944;2023-05-27T03:39:17;14.45;;;6.38;;
63534;SDS011;55128;50.230;18.944;2023-05-27T03:44:17;15.35;;;5.70;;
63534;SDS011;55128;50.230;18.944;2023-05-27T03:49:18;14.53;;;6.67;;
63534;SDS011;55128;50.230;18.944;2023-05-27T03:54:18;14.02;;;5.85;;
63534;SDS011;55128;50.230;18.944;2023-05-27T03:59:19;14.43;;;5.63;;
63534;SDS011;55128;50.230;18.944;2023-05-27T04:04:19;11.35;;;5.30;;
63534;SDS011;55128;50.230;18.944;2023-05-27T04:09:19;13.35;;;6.88;;
63534;SDS011;55128;50.230;18.944;2023-05-27T04:14:20;13.82;;;4.88;;
63534;SDS011;55128;50.230;18.944;2023-05-27T04:19:21;19.38;;;7.18;;
63534;SDS011;55128;50.230;18.944;2023-05-27T04:24:22;12.18;;;5.30;;
63534;SDS011;55128;50.230;18.944;2023-05-27T04:29:22;12.17;;;5.43;;
63534;SDS011;55128;50.230;18.944;2023-05-27T04:34:22;13.60;;;5.68;;
63534;SDS011;55128;50.230;18.944;2023-05-27T04:39:23;15.57;;;4.95;;
63534;SDS011;55128;50.230;18.944;2023-05-27T04:44:23;15.05;;;4.60;;
63534;SDS011;55128;50.230;18.944;2023-05-27T04:49:26;16.15;;;5.40;;
63534;SDS011;55128;50.230;18.944;2023-05-27T04:54:26;9.97;;;4.00;;
63534;SDS011;55128;50.230;18.944;2023-05-27T04:59:27;11.45;;;4.95;;
63534;SDS011;55128;50.230;18.944;2023-05-27T05:04:46;14.30;;;3.67;;
63534;SDS011;55128;50.230;18.944;2023-05-27T05:09:46;13.02;;;4.30;;
63534;SDS011;55128;50.230;18.944;2023-05-27T05:14:47;12.75;;;4.63;;
63534;SDS011;55128;50.230;18.944;2023-05-27T05:19:47;14.13;;;5.03;;
63534;SDS011;55128;50.230;18.944;2023-05-27T05:24:47;16.93;;;5.63;;
63534;SDS011;55128;50.230;18.944;2023-05-27T05:29:48;16.52;;;5.60;;
63534;SDS011;55128;50.230;18.944;2023-05-27T05:34:49;17.80;;;5.32;;
63534;SDS011;55128;50.230;18.944;2023-05-27T05:39:49;14.23;;;4.65;;
63534;SDS011;55128;50.230;18.944;2023-05-27T05:44:50;16.00;;;5.07;;
63534;SDS011;55128;50.230;18.944;2023-05-27T05:49:51;15.73;;;5.65;;
63534;SDS011;55128;50.230;18.944;2023-05-27T05:54:55;11.80;;;4.38;;
63534;SDS011;55128;50.230;18.944;2023-05-27T05:59:56;11.85;;;4.80;;
63534;SDS011;55128;50.230;18.944;2023-05-27T06:04:57;14.43;;;5.75;;
63534;SDS011;55128;50.230;18.944;2023-05-27T06:09:58;13.95;;;4.72;;
63534;SDS011;55128;50.230;18.944;2023-05-27T06:14:58;13.43;;;4.90;;
63534;SDS011;55128;50.230;18.944;2023-05-27T06:20:00;18.65;;;5.22;;
63534;SDS011;55128;50.230;18.944;2023-05-27T06:25:14;12.45;;;4.45;;
63534;SDS011;55128;50.230;18.944;2023-05-27T06:30:16;15.33;;;5.00;;
63534;SDS011;55128;50.230;18.944;2023-05-27T06:35:17;12.32;;;5.40;;
63534;SDS011;55128;50.230;18.944;2023-05-27T06:40:18;14.13;;;5.22;;
63534;SDS011;55128;50.230;18.944;2023-05-27T06:45:18;22.53;;;6.37;;
63534;SDS011;55128;50.230;18.944;2023-05-27T06:50:21;14.25;;;5.70;;
63534;SDS011;55128;50.230;18.944;2023-05-27T06:55:26;15.43;;;5.15;;
63534;SDS011;55128;50.230;18.944;2023-05-27T07:00:27;12.83;;;4.30;;
63534;SDS011;55128;50.230;18.944;2023-05-27T07:05:27;10.20;;;3.60;;
63534;SDS011;55128;50.230;18.944;2023-05-27T07:10:27;10.75;;;4.43;;
63534;SDS011;55128;50.230;18.944;2023-05-27T07:15:28;12.55;;;3.80;;
63534;SDS011;55128;50.230;18.944;2023-05-27T07:20:28;10.25;;;3.30;;
63534;SDS011;55128;50.230;18.944;2023-05-27T07:25:29;9.10;;;3.70;;
63534;SDS011;55128;50.230;18.944;2023-05-27T07:30:29;10.33;;;3.77;;
63534;SDS011;55128;50.230;18.944;2023-05-27T07:35:30;11.75;;;4.05;;
63534;SDS011;55128;50.230;18.944;2023-05-27T07:40:31;9.63;;;3.87;;
63534;SDS011;55128;50.230;18.944;2023-05-27T07:45:31;11.50;;;3.73;;
63534;SDS011;55128;50.230;18.944;2023-05-27T07:50:32;11.25;;;4.07;;
63534;SDS011;55128;50.230;18.944;2023-05-27T07:55:32;11.27;;;4.50;;
63534;SDS011;55128;50.230;18.944;2023-05-27T08:00:32;9.20;;;4.03;;
63534;SDS011;55128;50.230;18.944;2023-05-27T08:05:33;13.45;;;4.57;;
63534;SDS011;55128;50.230;18.944;2023-05-27T08:10:33;14.25;;;4.80;;
63534;SDS011;55128;50.230;18.944;2023-05-27T08:15:33;10.52;;;3.88;;
63534;SDS011;55128;50.230;18.944;2023-05-27T08:20:36;11.25;;;4.45;;
63534;SDS011;55128;50.230;18.944;2023-05-27T08:25:43;12.88;;;4.03;;
63534;SDS011;55128;50.230;18.944;2023-05-27T08:30:48;11.70;;;3.88;;
63534;SDS011;55128;50.230;18.944;2023-05-27T08:35:52;13.88;;;4.50;;
63534;SDS011;55128;50.230;18.944;2023-05-27T08:41:01;11.88;;;4.18;;
63534;SDS011;55128;50.230;18.944;2023-05-27T08:46:15;11.93;;;4.10;;
63534;SDS011;55128;50.230;18.944;2023-05-27T08:51:23;10.35;;;4.50;;
63534;SDS011;55128;50.230;18.944;2023-05-27T08:56:27;11.10;;;4.18;;
63534;SDS011;55128;50.230;18.944;2023-05-27T09:01:30;10.38;;;3.88;;
63534;SDS011;55128;50.230;18.944;2023-05-27T09:06:31;11.37;;;4.23;;
63534;SDS011;55128;50.230;18.944;2023-05-27T09:11:32;10.52;;;4.28;;
63534;SDS011;55128;50.230;18.944;2023-05-27T09:16:41;9.55;;;4.20;;
63534;SDS011;55128;50.230;18.944;2023-05-27T09:27:27;14.20;;;4.40;;
63534;SDS011;55128;50.230;18.944;2023-05-27T09:32:33;10.35;;;3.80;;
63534;SDS011;55128;50.230;18.944;2023-05-27T09:37:38;9.50;;;3.83;;
63534;SDS011;55128;50.230;18.944;2023-05-27T09:48:27;10.93;;;3.70;;
63534;SDS011;55128;50.230;18.944;2023-05-27T09:54:08;9.60;;;3.72;;
63534;SDS011;55128;50.230;18.944;2023-05-27T09:59:19;10.23;;;3.17;;
63534;SDS011;55128;50.230;18.944;2023-05-27T10:04:20;11.10;;;3.72;;
63534;SDS011;55128;50.230;18.944;2023-05-27T10:09:21;7.80;;;3.22;;
63534;SDS011;55128;50.230;18.944;2023-05-27T10:14:22;8.38;;;3.55;;
63534;SDS011;55128;50.230;18.944;2023-05-27T10:19:23;9.15;;;3.33;;
63534;SDS011;55128;50.230;18.944;2023-05-27T10:24:38;9.52;;;3.28;;
63534;SDS011;55128;50.230;18.944;2023-05-27T10:29:39;8.30;;;3.00;;
63534;SDS011;55128;50.230;18.944;2023-05-27T10:34:43;9.38;;;3.85;;
63534;SDS011;55128;50.230;18.944;2023-05-27T10:39:53;9.13;;;2.90;;
63534;SDS011;55128;50.230;18.944;2023-05-27T10:45:04;10.57;;;4.13;;
63534;SDS011;55128;50.230;18.944;2023-05-27T10:50:10;9.43;;;2.80;;
63534;SDS011;55128;50.230;18.944;2023-05-27T10:55:13;8.52;;;3.63;;
63534;SDS011;55128;50.230;18.944;2023-05-27T11:00:13;12.90;;;4.15;;
63534;SDS011;55128;50.230;18.944;2023-05-27T11:05:19;6.50;;;3.42;;
63534;SDS011;55128;50.230;18.944;2023-05-27T11:10:19;7.28;;;3.30;;
63534;SDS011;55128;50.230;18.944;2023-05-27T11:15:20;9.57;;;3.40;;
63534;SDS011;55128;50.230;18.944;2023-05-27T11:20:20;7.97;;;3.33;;
63534;SDS011;55128;50.230;18.944;2023-05-27T11:25:21;7.10;;;2.70;;
63534;SDS011;55128;50.230;18.944;2023-05-27T11:30:23;7.57;;;2.90;;
63534;SDS011;55128;50.230;18.944;2023-05-27T11:35:25;6.18;;;3.20;;
63534;SDS011;55128;50.230;18.944;2023-05-27T11:45:36;6.15;;;3.00;;
63534;SDS011;55128;50.230;18.944;2023-05-27T11:50:37;6.43;;;2.73;;
63534;SDS011;55128;50.230;18.944;2023-05-27T11:55:38;4.75;;;2.65;;
63534;SDS011;55128;50.230;18.944;2023-05-27T12:00:38;5.75;;;2.53;;
63534;SDS011;55128;50.230;18.944;2023-05-27T12:05:38;7.70;;;2.83;;
63534;SDS011;55128;50.230;18.944;2023-05-27T12:10:39;7.63;;;3.08;;
63534;SDS011;55128;50.230;18.944;2023-05-27T12:15:39;5.80;;;2.93;;
63534;SDS011;55128;50.230;18.944;2023-05-27T12:20:40;6.53;;;2.93;;
63534;SDS011;55128;50.230;18.944;2023-05-27T12:25:40;6.05;;;2.88;;
63534;SDS011;55128;50.230;18.944;2023-05-27T12:30:40;6.53;;;2.90;;
63534;SDS011;55128;50.230;18.944;2023-05-27T12:35:41;6.73;;;3.10;;
63534;SDS011;55128;50.230;18.944;2023-05-27T12:40:41;7.90;;;3.13;;
63534;SDS011;55128;50.230;18.944;2023-05-27T12:45:41;5.50;;;2.97;;
63534;SDS011;55128;50.230;18.944;2023-05-27T12:50:42;6.90;;;3.57;;
63534;SDS011;55128;50.230;18.944;2023-05-27T12:55:42;5.73;;;3.03;;
63534;SDS011;55128;50.230;18.944;2023-05-27T13:00:44;10.00;;;5.93;;
63534;SDS011;55128;50.230;18.944;2023-05-27T13:05:45;6.25;;;2.88;;
63534;SDS011;55128;50.230;18.944;2023-05-27T13:10:45;5.20;;;2.90;;
63534;SDS011;55128;50.230;18.944;2023-05-27T13:15:46;8.10;;;2.97;;
63534;SDS011;55128;50.230;18.944;2023-05-27T13:20:46;6.33;;;2.50;;
63534;SDS011;55128;50.230;18.944;2023-05-27T13:25:47;4.87;;;2.50;;
63534;SDS011;55128;50.230;18.944;2023-05-27T13:30:47;4.88;;;2.30;;
63534;SDS011;55128;50.230;18.944;2023-05-27T13:35:47;7.13;;;2.50;;
63534;SDS011;55128;50.230;18.944;2023-05-27T13:40:48;3.17;;;2.10;;
63534;SDS011;55128;50.230;18.944;2023-05-27T13:45:48;5.07;;;1.90;;
63534;SDS011;55128;50.230;18.944;2023-05-27T13:50:48;11.30;;;2.25;;
63534;SDS011;55128;50.230;18.944;2023-05-27T13:55:49;5.95;;;2.30;;
63534;SDS011;55128;50.230;18.944;2023-05-27T14:00:49;3.78;;;2.00;;
63534;SDS011;55128;50.230;18.944;2023-05-27T14:05:50;5.50;;;1.83;;
63534;SDS011;55128;50.230;18.944;2023-05-27T14:10:51;6.40;;;2.63;;
63534;SDS011;55128;50.230;18.944;2023-05-27T14:15:51;3.92;;;2.00;;
63534;SDS011;55128;50.230;18.944;2023-05-27T14:20:51;4.63;;;2.20;;
63534;SDS011;55128;50.230;18.944;2023-05-27T14:25:52;2.77;;;1.80;;
63534;SDS011;55128;50.230;18.944;2023-05-27T14:30:52;3.80;;;2.03;;
63534;SDS011;55128;50.230;18.944;2023-05-27T14:35:53;3.80;;;2.07;;
63534;SDS011;55128;50.230;18.944;2023-05-27T14:40:53;4.78;;;2.30;;
63534;SDS011;55128;50.230;18.944;2023-05-27T14:45:54;4.95;;;2.00;;
63534;SDS011;55128;50.230;18.944;2023-05-27T14:50:54;5.13;;;2.03;;
63534;SDS011;55128;50.230;18.944;2023-05-27T14:55:54;4.47;;;1.80;;
63534;SDS011;55128;50.230;18.944;2023-05-27T15:00:55;3.70;;;2.10;;
63534;SDS011;55128;50.230;18.944;2023-05-27T15:05:56;5.47;;;2.15;;
63534;SDS011;55128;50.230;18.944;2023-05-27T15:10:58;3.10;;;1.75;;
63534;SDS011;55128;50.230;18.944;2023-05-27T15:15:58;4.22;;;2.08;;
63534;SDS011;55128;50.230;18.944;2023-05-27T15:20:59;3.92;;;1.80;;
63534;SDS011;55128;50.230;18.944;2023-05-27T15:25:59;6.53;;;2.10;;
63534;SDS011;55128;50.230;18.944;2023-05-27T15:31:00;6.87;;;2.50;;
63534;SDS011;55128;50.230;18.944;2023-05-27T15:36:00;5.83;;;1.90;;
63534;SDS011;55128;50.230;18.944;2023-05-27T15:41:01;3.72;;;1.92;;
63534;SDS011;55128;50.230;18.944;2023-05-27T15:46:01;4.18;;;2.10;;
63534;SDS011;55128;50.230;18.944;2023-05-27T15:51:01;4.93;;;1.90;;
63534;SDS011;55128;50.230;18.944;2023-05-27T15:56:02;3.90;;;1.92;;
63534;SDS011;55128;50.230;18.944;2023-05-27T16:01:02;4.90;;;1.88;;
63534;SDS011;55128;50.230;18.944;2023-05-27T16:06:03;3.77;;;2.00;;
63534;SDS011;55128;50.230;18.944;2023-05-27T16:11:05;3.70;;;1.92;;
63534;SDS011;55128;50.230;18.944;2023-05-27T16:16:06;6.00;;;1.63;;
63534;SDS011;55128;50.230;18.944;2023-05-27T16:21:06;4.10;;;2.08;;
63534;SDS011;55128;50.230;18.944;2023-05-27T16:26:07;3.55;;;1.98;;
63534;SDS011;55128;50.230;18.944;2023-05-27T16:31:07;3.15;;;1.60;;
63534;SDS011;55128;50.230;18.944;2023-05-27T16:36:07;4.43;;;2.33;;
63534;SDS011;55128;50.230;18.944;2023-05-27T16:41:08;5.38;;;1.92;;
63534;SDS011;55128;50.230;18.944;2023-05-27T16:46:08;4.80;;;2.10;;
63534;SDS011;55128;50.230;18.944;2023-05-27T16:51:08;3.40;;;1.70;;
63534;SDS011;55128;50.230;18.944;2023-05-27T16:56:09;5.38;;;2.00;;
63534;SDS011;55128;50.230;18.944;2023-05-27T17:01:09;2.70;;;1.50;;
63534;SDS011;55128;50.230;18.944;2023-05-27T17:06:10;3.63;;;1.70;;
63534;SDS011;55128;50.230;18.944;2023-05-27T17:11:10;3.53;;;1.70;;
63534;SDS011;55128;50.230;18.944;2023-05-27T17:16:11;4.60;;;1.90;;
63534;SDS011;55128;50.230;18.944;2023-05-27T17:21:11;4.57;;;1.80;;
63534;SDS011;55128;50.230;18.944;2023-05-27T17:26:11;2.87;;;1.67;;
63534;SDS011;55128;50.230;18.944;2023-05-27T17:31:13;5.07;;;1.80;;
63534;SDS011;55128;50.230;18.944;2023-05-27T17:36:13;3.50;;;1.60;;
63534;SDS011;55128;50.230;18.944;2023-05-27T17:41:13;3.33;;;1.80;;
63534;SDS011;55128;50.230;18.944;2023-05-27T17:46:14;5.20;;;1.80;;
63534;SDS011;55128;50.230;18.944;2023-05-27T17:51:14;3.67;;;1.80;;
63534;SDS011;55128;50.230;18.944;2023-05-27T17:56:15;3.77;;;1.63;;
63534;SDS011;55128;50.230;18.944;2023-05-27T18:01:15;3.92;;;2.00;;
63534;SDS011;55128;50.230;18.944;2023-05-27T18:06:16;5.28;;;2.72;;
63534;SDS011;55128;50.230;18.944;2023-05-27T18:11:16;4.67;;;2.33;;
63534;SDS011;55128;50.230;18.944;2023-05-27T18:16:16;5.60;;;2.40;;
63534;SDS011;55128;50.230;18.944;2023-05-27T18:21:17;6.30;;;2.67;;
63534;SDS011;55128;50.230;18.944;2023-05-27T18:26:17;12.10;;;3.10;;
63534;SDS011;55128;50.230;18.944;2023-05-27T18:31:18;5.50;;;2.47;;
63534;SDS011;55128;50.230;18.944;2023-05-27T18:36:18;5.32;;;2.75;;
63534;SDS011;55128;50.230;18.944;2023-05-27T18:41:18;8.07;;;2.80;;
63534;SDS011;55128;50.230;18.944;2023-05-27T18:46:19;5.13;;;2.90;;
63534;SDS011;55128;50.230;18.944;2023-05-27T18:51:19;6.65;;;2.80;;
63534;SDS011;55128;50.230;18.944;2023-05-27T18:56:20;6.18;;;3.10;;
63534;SDS011;55128;50.230;18.944;2023-05-27T19:01:21;5.50;;;2.50;;
63534;SDS011;55128;50.230;18.944;2023-05-27T19:06:21;4.80;;;2.83;;
63534;SDS011;55128;50.230;18.944;2023-05-27T19:11:22;4.95;;;2.67;;
63534;SDS011;55128;50.230;18.944;2023-05-27T19:16:22;7.55;;;3.08;;
63534;SDS011;55128;50.230;18.944;2023-05-27T19:21:23;7.82;;;3.17;;
63534;SDS011;55128;50.230;18.944;2023-05-27T19:26:24;5.07;;;3.15;;
63534;SDS011;55128;50.230;18.944;2023-05-27T19:31:25;6.70;;;3.35;;
63534;SDS011;55128;50.230;18.944;2023-05-27T19:36:25;6.10;;;3.03;;
63534;SDS011;55128;50.230;18.944;2023-05-27T19:41:27;11.30;;;4.40;;
63534;SDS011;55128;50.230;18.944;2023-05-27T19:46:27;6.83;;;3.63;;
63534;SDS011;55128;50.230;18.944;2023-05-27T19:51:28;7.90;;;3.90;;
63534;SDS011;55128;50.230;18.944;2023-05-27T19:56:28;8.65;;;4.53;;
63534;SDS011;55128;50.230;18.944;2023-05-27T20:01:29;9.63;;;4.30;;
63534;SDS011;55128;50.230;18.944;2023-05-27T20:06:29;9.77;;;4.22;;
63534;SDS011;55128;50.230;18.944;2023-05-27T20:11:32;12.40;;;4.05;;
63534;SDS011;55128;50.230;18.944;2023-05-27T20:16:33;11.27;;;3.88;;
63534;SDS011;55128;50.230;18.944;2023-05-27T20:21:34;9.18;;;4.03;;
63534;SDS011;55128;50.230;18.944;2023-05-27T20:26:35;10.45;;;5.20;;
63534;SDS011;55128;50.230;18.944;2023-05-27T20:31:35;7.27;;;3.90;;
63534;SDS011;55128;50.230;18.944;2023-05-27T20:36:35;11.07;;;5.67;;
63534;SDS011;55128;50.230;18.944;2023-05-27T20:41:36;12.32;;;4.60;;
63534;SDS011;55128;50.230;18.944;2023-05-27T20:46:37;8.07;;;3.83;;
63534;SDS011;55128;50.230;18.944;2023-05-27T20:51:39;7.82;;;4.15;;
63534;SDS011;55128;50.230;18.944;2023-05-27T20:56:40;14.73;;;4.80;;
63534;SDS011;55128;50.230;18.944;2023-05-27T21:01:40;10.23;;;4.18;;
63534;SDS011;55128;50.230;18.944;2023-05-27T21:06:42;9.73;;;4.20;;
63534;SDS011;55128;50.230;18.944;2023-05-27T21:11:42;7.47;;;4.70;;
63534;SDS011;55128;50.230;18.944;2023-05-27T21:16:43;7.15;;;4.55;;
63534;SDS011;55128;50.230;18.944;2023-05-27T21:21:43;11.40;;;4.47;;
63534;SDS011;55128;50.230;18.944;2023-05-27T21:26:44;8.25;;;4.70;;
63534;SDS011;55128;50.230;18.944;2023-05-27T21:31:44;9.20;;;4.47;;
63534;SDS011;55128;50.230;18.944;2023-05-27T21:36:44;10.43;;;4.70;;
63534;SDS011;55128;50.230;18.944;2023-05-27T21:41:45;7.67;;;4.97;;
63534;SDS011;55128;50.230;18.944;2023-05-27T21:46:45;8.77;;;5.30;;
63534;SDS011;55128;50.230;18.944;2023-05-27T21:51:46;11.47;;;5.90;;
63534;SDS011;55128;50.230;18.944;2023-05-27T21:56:46;11.98;;;6.20;;
63534;SDS011;55128;50.230;18.944;2023-05-27T22:01:46;11.13;;;5.90;;
63534;SDS011;55128;50.230;18.944;2023-05-27T22:06:47;11.38;;;5.82;;
63534;SDS011;55128;50.230;18.944;2023-05-27T22:11:47;15.17;;;9.40;;
63534;SDS011;55128;50.230;18.944;2023-05-27T22:16:47;11.80;;;5.72;;
63534;SDS011;55128;50.230;18.944;2023-05-27T22:21:48;11.87;;;6.07;;
63534;SDS011;55128;50.230;18.944;2023-05-27T22:26:48;10.43;;;5.43;;
63534;SDS011;55128;50.230;18.944;2023-05-27T22:31:50;23.70;;;13.80;;
63534;SDS011;55128;50.230;18.944;2023-05-27T22:36:53;9.98;;;5.90;;
63534;SDS011;55128;50.230;18.944;2023-05-27T22:41:53;10.93;;;5.93;;
63534;SDS011;55128;50.230;18.944;2023-05-27T22:46:53;13.93;;;6.10;;
63534;SDS011;55128;50.230;18.944;2023-05-27T22:51:54;10.07;;;5.53;;
63534;SDS011;55128;50.230;18.944;2023-05-27T22:56:55;14.27;;;7.20;;
63534;SDS011;55128;50.230;18.944;2023-05-27T23:01:55;10.35;;;5.57;;
63534;SDS011;55128;50.230;18.944;2023-05-27T23:06:55;20.35;;;9.45;;
63534;SDS011;55128;50.230;18.944;2023-05-27T23:11:56;9.37;;;6.33;;
63534;SDS011;55128;50.230;18.944;2023-05-27T23:16:56;10.30;;;5.35;;
63534;SDS011;55128;50.230;18.944;2023-05-27T23:21:58;17.02;;;8.65;;
63534;SDS011;55128;50.230;18.944;2023-05-27T23:26:58;12.60;;;7.38;;
63534;SDS011;55128;50.230;18.944;2023-05-27T23:31:58;10.65;;;6.18;;
63534;SDS011;55128;50.230;18.944;2023-05-27T23:36:59;11.17;;;4.97;;
63534;SDS011;55128;50.230;18.944;2023-05-27T23:41:59;10.88;;;5.50;;
63534;SDS011;55128;50.230;18.944;2023-05-27T23:47:00;13.60;;;7.45;;
63534;SDS011;55128;50.230;18.944;2023-05-27T23:52:00;7.85;;;5.15;;
63534;SDS011;55128;50.230;18.944;2023-05-27T23:57:01;15.68;;;10.10;;
